Weather at Koliganek Airport

Public forecast

Using degrees Fahrenheit for public forecast. Weather courtesy of forecast.io.

Current aviation weather report (METAR) for Koliganek Airport

Retrieved 2021/06/13 09:56 UTC (32 minutes ago):

PAJZ 130956Z AUTO 20005KT 8SM CLR 04/03 A2995 RMK AO2 SLP150 T00390033

Closest aviation forecast (TAF) to Koliganek Airport

Closest forecast is Dillingham Airport, 55.9 nm (103.6 km) SW. Retrieved 2021/06/13 06:36 UTC (4 hours ago):

TAF PADL 130534Z 1306/1406 VRB06KT P6SM SCT025 OVC035 TEMPO 1306/1310 OVC025 FM131000 VRB05KT P6SM OVC015 FM131700 VRB05KT P6SM OVC025 FM132100 15008KT P6SM OVC050